sensor_id;sensor_type;location;lat;lon;timestamp;P1;durP1;ratioP1;P2;durP2;ratioP2
37288;SDS011;23174;49.462;11.000;2023-12-20T00:00:45;3.70;;;2.17;;
37288;SDS011;23174;49.462;11.000;2023-12-20T00:02:46;2.53;;;2.15;;
37288;SDS011;23174;49.462;11.000;2023-12-20T00:04:47;1.83;;;1.73;;
37288;SDS011;23174;49.462;11.000;2023-12-20T00:06:47;4.15;;;1.90;;
37288;SDS011;23174;49.462;11.000;2023-12-20T00:08:47;2.97;;;2.03;;
37288;SDS011;23174;49.462;11.000;2023-12-20T00:10:48;4.35;;;2.83;;
37288;SDS011;23174;49.462;11.000;2023-12-20T00:12:48;1.83;;;1.73;;
37288;SDS011;23174;49.462;11.000;2023-12-20T00:14:49;3.13;;;2.10;;
37288;SDS011;23174;49.462;11.000;2023-12-20T00:16:49;3.05;;;2.20;;
37288;SDS011;23174;49.462;11.000;2023-12-20T00:18:50;3.05;;;1.50;;
37288;SDS011;23174;49.462;11.000;2023-12-20T00:20:50;4.20;;;2.47;;
37288;SDS011;23174;49.462;11.000;2023-12-20T00:22:51;3.22;;;1.83;;
37288;SDS011;23174;49.462;11.000;2023-12-20T00:24:51;2.97;;;1.80;;
37288;SDS011;23174;49.462;11.000;2023-12-20T00:26:55;2.45;;;2.03;;
37288;SDS011;23174;49.462;11.000;2023-12-20T00:28:55;4.43;;;1.88;;
37288;SDS011;23174;49.462;11.000;2023-12-20T00:30:55;4.88;;;2.15;;
37288;SDS011;23174;49.462;11.000;2023-12-20T00:32:56;1.60;;;1.50;;
37288;SDS011;23174;49.462;11.000;2023-12-20T00:34:57;2.63;;;1.73;;
37288;SDS011;23174;49.462;11.000;2023-12-20T00:36:57;2.75;;;1.90;;
37288;SDS011;23174;49.462;11.000;2023-12-20T00:38:57;2.35;;;2.05;;
37288;SDS011;23174;49.462;11.000;2023-12-20T00:40:58;2.83;;;1.90;;
37288;SDS011;23174;49.462;11.000;2023-12-20T00:42:58;3.00;;;2.45;;
37288;SDS011;23174;49.462;11.000;2023-12-20T00:44:59;2.33;;;1.60;;
37288;SDS011;23174;49.462;11.000;2023-12-20T00:47:00;1.90;;;1.80;;
37288;SDS011;23174;49.462;11.000;2023-12-20T00:49:01;2.15;;;1.75;;
37288;SDS011;23174;49.462;11.000;2023-12-20T00:51:01;2.03;;;1.92;;
37288;SDS011;23174;49.462;11.000;2023-12-20T00:53:02;3.13;;;1.80;;
37288;SDS011;23174;49.462;11.000;2023-12-20T00:55:03;2.38;;;1.52;;
37288;SDS011;23174;49.462;11.000;2023-12-20T00:57:04;1.90;;;1.60;;
37288;SDS011;23174;49.462;11.000;2023-12-20T00:59:05;1.83;;;1.60;;
37288;SDS011;23174;49.462;11.000;2023-12-20T01:01:05;3.20;;;2.00;;
37288;SDS011;23174;49.462;11.000;2023-12-20T01:03:06;1.63;;;1.52;;
37288;SDS011;23174;49.462;11.000;2023-12-20T01:05:06;1.60;;;1.50;;
37288;SDS011;23174;49.462;11.000;2023-12-20T01:07:09;3.67;;;1.60;;
37288;SDS011;23174;49.462;11.000;2023-12-20T01:09:09;1.65;;;1.50;;
37288;SDS011;23174;49.462;11.000;2023-12-20T01:11:10;2.30;;;1.88;;
37288;SDS011;23174;49.462;11.000;2023-12-20T01:13:10;1.58;;;1.48;;
37288;SDS011;23174;49.462;11.000;2023-12-20T01:15:10;3.00;;;1.95;;
37288;SDS011;23174;49.462;11.000;2023-12-20T01:17:11;2.72;;;1.70;;
37288;SDS011;23174;49.462;11.000;2023-12-20T01:19:12;2.03;;;1.45;;
37288;SDS011;23174;49.462;11.000;2023-12-20T01:21:13;2.90;;;1.30;;
37288;SDS011;23174;49.462;11.000;2023-12-20T01:23:14;1.75;;;1.40;;
37288;SDS011;23174;49.462;11.000;2023-12-20T01:25:14;1.08;;;1.08;;
37288;SDS011;23174;49.462;11.000;2023-12-20T01:27:14;3.80;;;1.27;;
37288;SDS011;23174;49.462;11.000;2023-12-20T01:29:15;1.42;;;0.88;;
37288;SDS011;23174;49.462;11.000;2023-12-20T01:31:15;1.15;;;0.90;;
37288;SDS011;23174;49.462;11.000;2023-12-20T01:33:16;1.33;;;0.95;;
37288;SDS011;23174;49.462;11.000;2023-12-20T01:35:16;1.98;;;1.10;;
37288;SDS011;23174;49.462;11.000;2023-12-20T01:37:17;0.90;;;0.88;;
37288;SDS011;23174;49.462;11.000;2023-12-20T01:39:18;0.95;;;0.93;;
37288;SDS011;23174;49.462;11.000;2023-12-20T01:41:18;1.02;;;0.90;;
37288;SDS011;23174;49.462;11.000;2023-12-20T01:43:19;1.02;;;0.93;;
37288;SDS011;23174;49.462;11.000;2023-12-20T01:45:19;1.65;;;0.95;;
37288;SDS011;23174;49.462;11.000;2023-12-20T01:47:19;0.90;;;0.80;;
37288;SDS011;23174;49.462;11.000;2023-12-20T01:49:21;0.98;;;0.80;;
37288;SDS011;23174;49.462;11.000;2023-12-20T01:51:22;1.17;;;1.00;;
37288;SDS011;23174;49.462;11.000;2023-12-20T01:53:23;0.70;;;0.70;;
37288;SDS011;23174;49.462;11.000;2023-12-20T01:55:27;0.63;;;0.63;;
37288;SDS011;23174;49.462;11.000;2023-12-20T01:57:31;0.70;;;0.70;;
37288;SDS011;23174;49.462;11.000;2023-12-20T01:59:32;1.88;;;0.95;;
37288;SDS011;23174;49.462;11.000;2023-12-20T02:01:33;0.70;;;0.70;;
37288;SDS011;23174;49.462;11.000;2023-12-20T02:03:34;2.38;;;0.77;;
37288;SDS011;23174;49.462;11.000;2023-12-20T02:05:36;0.77;;;0.75;;
37288;SDS011;23174;49.462;11.000;2023-12-20T02:07:38;0.70;;;0.70;;
37288;SDS011;23174;49.462;11.000;2023-12-20T02:09:38;0.68;;;0.68;;
37288;SDS011;23174;49.462;11.000;2023-12-20T02:11:40;0.60;;;0.60;;
37288;SDS011;23174;49.462;11.000;2023-12-20T02:13:40;0.45;;;0.45;;
37288;SDS011;23174;49.462;11.000;2023-12-20T02:15:41;1.52;;;0.50;;
37288;SDS011;23174;49.462;11.000;2023-12-20T02:17:43;0.65;;;0.65;;
37288;SDS011;23174;49.462;11.000;2023-12-20T02:19:45;0.47;;;0.47;;
37288;SDS011;23174;49.462;11.000;2023-12-20T02:21:45;0.50;;;0.50;;
37288;SDS011;23174;49.462;11.000;2023-12-20T02:23:46;0.50;;;0.50;;
37288;SDS011;23174;49.462;11.000;2023-12-20T02:25:46;0.40;;;0.40;;
37288;SDS011;23174;49.462;11.000;2023-12-20T02:27:47;0.50;;;0.50;;
37288;SDS011;23174;49.462;11.000;2023-12-20T02:29:48;0.40;;;0.40;;
37288;SDS011;23174;49.462;11.000;2023-12-20T02:31:50;0.40;;;0.40;;
37288;SDS011;23174;49.462;11.000;2023-12-20T02:33:50;0.40;;;0.40;;
37288;SDS011;23174;49.462;11.000;2023-12-20T02:35:51;1.10;;;0.40;;
37288;SDS011;23174;49.462;11.000;2023-12-20T02:37:52;0.45;;;0.40;;
37288;SDS011;23174;49.462;11.000;2023-12-20T02:39:53;0.77;;;0.50;;
37288;SDS011;23174;49.462;11.000;2023-12-20T02:41:53;0.40;;;0.40;;
37288;SDS011;23174;49.462;11.000;2023-12-20T02:43:54;0.47;;;0.28;;
37288;SDS011;23174;49.462;11.000;2023-12-20T02:45:54;0.85;;;0.38;;
37288;SDS011;23174;49.462;11.000;2023-12-20T02:47:55;1.65;;;0.40;;
37288;SDS011;23174;49.462;11.000;2023-12-20T02:49:55;1.23;;;0.70;;
37288;SDS011;23174;49.462;11.000;2023-12-20T02:51:56;1.55;;;0.30;;
37288;SDS011;23174;49.462;11.000;2023-12-20T02:53:56;0.35;;;0.32;;
37288;SDS011;23174;49.462;11.000;2023-12-20T02:55:57;0.30;;;0.30;;
37288;SDS011;23174;49.462;11.000;2023-12-20T02:57:57;0.30;;;0.30;;
37288;SDS011;23174;49.462;11.000;2023-12-20T02:59:58;0.20;;;0.20;;
37288;SDS011;23174;49.462;11.000;2023-12-20T03:01:58;0.38;;;0.38;;
37288;SDS011;23174;49.462;11.000;2023-12-20T03:03:59;0.45;;;0.43;;
37288;SDS011;23174;49.462;11.000;2023-12-20T03:05:59;0.43;;;0.30;;
37288;SDS011;23174;49.462;11.000;2023-12-20T03:08:00;1.08;;;0.50;;
37288;SDS011;23174;49.462;11.000;2023-12-20T03:10:00;0.68;;;0.50;;
37288;SDS011;23174;49.462;11.000;2023-12-20T03:12:01;0.20;;;0.20;;
37288;SDS011;23174;49.462;11.000;2023-12-20T03:14:01;0.20;;;0.20;;
37288;SDS011;23174;49.462;11.000;2023-12-20T03:16:09;1.65;;;0.30;;
37288;SDS011;23174;49.462;11.000;2023-12-20T03:18:13;1.55;;;0.20;;
37288;SDS011;23174;49.462;11.000;2023-12-20T03:20:13;0.20;;;0.20;;
37288;SDS011;23174;49.462;11.000;2023-12-20T03:22:14;1.10;;;0.38;;
37288;SDS011;23174;49.462;11.000;2023-12-20T03:24:14;0.30;;;0.30;;
37288;SDS011;23174;49.462;11.000;2023-12-20T03:26:15;0.30;;;0.20;;
37288;SDS011;23174;49.462;11.000;2023-12-20T03:28:15;0.95;;;0.20;;
37288;SDS011;23174;49.462;11.000;2023-12-20T03:30:16;0.22;;;0.22;;
37288;SDS011;23174;49.462;11.000;2023-12-20T03:32:16;0.20;;;0.20;;
37288;SDS011;23174;49.462;11.000;2023-12-20T03:34:17;0.55;;;0.20;;
37288;SDS011;23174;49.462;11.000;2023-12-20T03:36:17;0.15;;;0.15;;
37288;SDS011;23174;49.462;11.000;2023-12-20T03:38:17;0.68;;;0.50;;
37288;SDS011;23174;49.462;11.000;2023-12-20T03:40:18;0.30;;;0.30;;
37288;SDS011;23174;49.462;11.000;2023-12-20T03:42:18;0.40;;;0.40;;
37288;SDS011;23174;49.462;11.000;2023-12-20T03:44:19;0.30;;;0.30;;
37288;SDS011;23174;49.462;11.000;2023-12-20T03:46:20;0.52;;;0.20;;
37288;SDS011;23174;49.462;11.000;2023-12-20T03:48:20;0.30;;;0.30;;
37288;SDS011;23174;49.462;11.000;2023-12-20T03:50:24;0.85;;;0.50;;
37288;SDS011;23174;49.462;11.000;2023-12-20T03:52:25;0.40;;;0.40;;
37288;SDS011;23174;49.462;11.000;2023-12-20T03:54:25;0.25;;;0.20;;
37288;SDS011;23174;49.462;11.000;2023-12-20T03:56:25;0.30;;;0.30;;
37288;SDS011;23174;49.462;11.000;2023-12-20T03:58:26;0.43;;;0.43;;
37288;SDS011;23174;49.462;11.000;2023-12-20T04:00:26;0.35;;;0.35;;
37288;SDS011;23174;49.462;11.000;2023-12-20T04:02:27;0.60;;;0.30;;
37288;SDS011;23174;49.462;11.000;2023-12-20T04:04:27;0.30;;;0.30;;
37288;SDS011;23174;49.462;11.000;2023-12-20T04:06:28;0.30;;;0.30;;
37288;SDS011;23174;49.462;11.000;2023-12-20T04:08:28;0.25;;;0.25;;
37288;SDS011;23174;49.462;11.000;2023-12-20T04:10:29;0.35;;;0.20;;
37288;SDS011;23174;49.462;11.000;2023-12-20T04:12:30;0.30;;;0.30;;
37288;SDS011;23174;49.462;11.000;2023-12-20T04:14:30;0.30;;;0.30;;
37288;SDS011;23174;49.462;11.000;2023-12-20T04:16:31;0.30;;;0.30;;
37288;SDS011;23174;49.462;11.000;2023-12-20T04:18:31;0.38;;;0.38;;
37288;SDS011;23174;49.462;11.000;2023-12-20T04:20:32;0.47;;;0.43;;
37288;SDS011;23174;49.462;11.000;2023-12-20T04:22:32;0.28;;;0.28;;
37288;SDS011;23174;49.462;11.000;2023-12-20T04:24:33;0.40;;;0.30;;
37288;SDS011;23174;49.462;11.000;2023-12-20T04:26:33;0.30;;;0.30;;
37288;SDS011;23174;49.462;11.000;2023-12-20T04:28:34;0.68;;;0.40;;
37288;SDS011;23174;49.462;11.000;2023-12-20T04:30:34;1.02;;;0.30;;
37288;SDS011;23174;49.462;11.000;2023-12-20T04:32:35;0.32;;;0.32;;
37288;SDS011;23174;49.462;11.000;2023-12-20T04:34:35;0.22;;;0.22;;
37288;SDS011;23174;49.462;11.000;2023-12-20T04:36:36;0.30;;;0.30;;
37288;SDS011;23174;49.462;11.000;2023-12-20T04:38:37;0.35;;;0.30;;
37288;SDS011;23174;49.462;11.000;2023-12-20T04:40:37;0.30;;;0.30;;
37288;SDS011;23174;49.462;11.000;2023-12-20T04:42:38;0.40;;;0.40;;
37288;SDS011;23174;49.462;11.000;2023-12-20T04:44:39;0.50;;;0.40;;
37288;SDS011;23174;49.462;11.000;2023-12-20T04:46:39;0.50;;;0.50;;
37288;SDS011;23174;49.462;11.000;2023-12-20T04:48:40;0.20;;;0.20;;
37288;SDS011;23174;49.462;11.000;2023-12-20T04:50:40;0.40;;;0.30;;
37288;SDS011;23174;49.462;11.000;2023-12-20T04:52:42;0.40;;;0.40;;
37288;SDS011;23174;49.462;11.000;2023-12-20T04:54:42;2.10;;;0.60;;
37288;SDS011;23174;49.462;11.000;2023-12-20T04:56:43;0.30;;;0.30;;
37288;SDS011;23174;49.462;11.000;2023-12-20T04:58:43;0.60;;;0.47;;
37288;SDS011;23174;49.462;11.000;2023-12-20T05:00:44;0.63;;;0.63;;
37288;SDS011;23174;49.462;11.000;2023-12-20T05:02:44;0.13;;;0.13;;
37288;SDS011;23174;49.462;11.000;2023-12-20T05:04:45;0.20;;;0.20;;
37288;SDS011;23174;49.462;11.000;2023-12-20T05:06:46;0.88;;;0.40;;
37288;SDS011;23174;49.462;11.000;2023-12-20T05:08:46;0.40;;;0.40;;
37288;SDS011;23174;49.462;11.000;2023-12-20T05:10:46;0.20;;;0.20;;
37288;SDS011;23174;49.462;11.000;2023-12-20T05:12:47;0.30;;;0.30;;
37288;SDS011;23174;49.462;11.000;2023-12-20T05:14:48;0.30;;;0.30;;
37288;SDS011;23174;49.462;11.000;2023-12-20T05:16:48;0.30;;;0.30;;
37288;SDS011;23174;49.462;11.000;2023-12-20T05:18:49;0.30;;;0.30;;
37288;SDS011;23174;49.462;11.000;2023-12-20T05:20:52;0.50;;;0.50;;
37288;SDS011;23174;49.462;11.000;2023-12-20T05:22:52;0.70;;;0.60;;
37288;SDS011;23174;49.462;11.000;2023-12-20T05:24:53;0.30;;;0.30;;
37288;SDS011;23174;49.462;11.000;2023-12-20T05:26:53;0.60;;;0.40;;
37288;SDS011;23174;49.462;11.000;2023-12-20T05:28:54;0.38;;;0.32;;
37288;SDS011;23174;49.462;11.000;2023-12-20T05:30:54;0.47;;;0.38;;
37288;SDS011;23174;49.462;11.000;2023-12-20T05:32:55;0.20;;;0.20;;
37288;SDS011;23174;49.462;11.000;2023-12-20T05:34:56;0.40;;;0.40;;
37288;SDS011;23174;49.462;11.000;2023-12-20T05:36:57;0.30;;;0.30;;
37288;SDS011;23174;49.462;11.000;2023-12-20T05:38:58;0.20;;;0.20;;
37288;SDS011;23174;49.462;11.000;2023-12-20T05:40:58;0.30;;;0.30;;
37288;SDS011;23174;49.462;11.000;2023-12-20T05:42:59;0.30;;;0.30;;
37288;SDS011;23174;49.462;11.000;2023-12-20T05:44:59;1.85;;;0.30;;
37288;SDS011;23174;49.462;11.000;2023-12-20T05:47:00;0.47;;;0.40;;
37288;SDS011;23174;49.462;11.000;2023-12-20T05:49:00;0.30;;;0.30;;
37288;SDS011;23174;49.462;11.000;2023-12-20T05:51:00;0.40;;;0.40;;
37288;SDS011;23174;49.462;11.000;2023-12-20T05:53:01;0.30;;;0.30;;
37288;SDS011;23174;49.462;11.000;2023-12-20T05:55:01;0.43;;;0.43;;
37288;SDS011;23174;49.462;11.000;2023-12-20T05:57:02;0.40;;;0.32;;
37288;SDS011;23174;49.462;11.000;2023-12-20T05:59:03;0.40;;;0.40;;
37288;SDS011;23174;49.462;11.000;2023-12-20T06:01:04;0.38;;;0.38;;
37288;SDS011;23174;49.462;11.000;2023-12-20T06:03:05;0.43;;;0.43;;
37288;SDS011;23174;49.462;11.000;2023-12-20T06:05:05;0.73;;;0.73;;
37288;SDS011;23174;49.462;11.000;2023-12-20T06:07:06;1.15;;;1.15;;
37288;SDS011;23174;49.462;11.000;2023-12-20T06:09:07;0.80;;;0.80;;
37288;SDS011;23174;49.462;11.000;2023-12-20T06:11:07;0.45;;;0.45;;
37288;SDS011;23174;49.462;11.000;2023-12-20T06:13:07;0.80;;;0.80;;
37288;SDS011;23174;49.462;11.000;2023-12-20T06:15:08;0.70;;;0.70;;
37288;SDS011;23174;49.462;11.000;2023-12-20T06:17:09;0.50;;;0.50;;
37288;SDS011;23174;49.462;11.000;2023-12-20T06:19:09;0.60;;;0.60;;
37288;SDS011;23174;49.462;11.000;2023-12-20T06:21:10;0.50;;;0.50;;
37288;SDS011;23174;49.462;11.000;2023-12-20T06:23:12;1.23;;;0.60;;
37288;SDS011;23174;49.462;11.000;2023-12-20T06:25:13;0.40;;;0.40;;
37288;SDS011;23174;49.462;11.000;2023-12-20T06:27:14;0.57;;;0.57;;
37288;SDS011;23174;49.462;11.000;2023-12-20T06:29:14;0.55;;;0.55;;
37288;SDS011;23174;49.462;11.000;2023-12-20T06:31:15;0.50;;;0.50;;
37288;SDS011;23174;49.462;11.000;2023-12-20T06:33:15;0.55;;;0.55;;
37288;SDS011;23174;49.462;11.000;2023-12-20T06:35:16;0.65;;;0.65;;
37288;SDS011;23174;49.462;11.000;2023-12-20T06:37:16;0.80;;;0.80;;
37288;SDS011;23174;49.462;11.000;2023-12-20T06:39:17;0.57;;;0.57;;
37288;SDS011;23174;49.462;11.000;2023-12-20T06:41:17;0.50;;;0.50;;
37288;SDS011;23174;49.462;11.000;2023-12-20T06:43:18;0.68;;;0.60;;
37288;SDS011;23174;49.462;11.000;2023-12-20T06:45:18;0.68;;;0.60;;
37288;SDS011;23174;49.462;11.000;2023-12-20T06:47:19;0.60;;;0.60;;
37288;SDS011;23174;49.462;11.000;2023-12-20T06:49:19;0.90;;;0.47;;
37288;SDS011;23174;49.462;11.000;2023-12-20T06:51:20;0.70;;;0.70;;
37288;SDS011;23174;49.462;11.000;2023-12-20T06:53:20;0.52;;;0.52;;
37288;SDS011;23174;49.462;11.000;2023-12-20T06:55:21;0.70;;;0.70;;
37288;SDS011;23174;49.462;11.000;2023-12-20T06:57:22;0.95;;;0.95;;
37288;SDS011;23174;49.462;11.000;2023-12-20T06:59:23;0.80;;;0.80;;
37288;SDS011;23174;49.462;11.000;2023-12-20T07:01:23;0.50;;;0.50;;
37288;SDS011;23174;49.462;11.000;2023-12-20T07:03:24;0.90;;;0.90;;
37288;SDS011;23174;49.462;11.000;2023-12-20T07:05:24;1.10;;;0.90;;
37288;SDS011;23174;49.462;11.000;2023-12-20T07:07:25;0.60;;;0.60;;
37288;SDS011;23174;49.462;11.000;2023-12-20T07:09:26;0.73;;;0.70;;
37288;SDS011;23174;49.462;11.000;2023-12-20T07:11:26;0.95;;;0.90;;
37288;SDS011;23174;49.462;11.000;2023-12-20T07:13:27;0.88;;;0.80;;
37288;SDS011;23174;49.462;11.000;2023-12-20T07:15:27;0.98;;;0.60;;
37288;SDS011;23174;49.462;11.000;2023-12-20T07:17:29;2.05;;;0.68;;
37288;SDS011;23174;49.462;11.000;2023-12-20T07:19:29;0.80;;;0.80;;
37288;SDS011;23174;49.462;11.000;2023-12-20T07:21:30;0.60;;;0.60;;
37288;SDS011;23174;49.462;11.000;2023-12-20T07:23:30;0.65;;;0.65;;
37288;SDS011;23174;49.462;11.000;2023-12-20T07:25:31;1.00;;;0.60;;
37288;SDS011;23174;49.462;11.000;2023-12-20T07:27:32;0.70;;;0.70;;
37288;SDS011;23174;49.462;11.000;2023-12-20T07:29:32;0.88;;;0.57;;
37288;SDS011;23174;49.462;11.000;2023-12-20T07:31:33;1.58;;;0.63;;
37288;SDS011;23174;49.462;11.000;2023-12-20T07:33:34;0.60;;;0.60;;
37288;SDS011;23174;49.462;11.000;2023-12-20T07:35:35;0.60;;;0.60;;
37288;SDS011;23174;49.462;11.000;2023-12-20T07:37:35;1.10;;;0.90;;
37288;SDS011;23174;49.462;11.000;2023-12-20T07:39:36;1.02;;;0.70;;
37288;SDS011;23174;49.462;11.000;2023-12-20T07:41:37;0.70;;;0.70;;
37288;SDS011;23174;49.462;11.000;2023-12-20T07:43:38;0.80;;;0.80;;
37288;SDS011;23174;49.462;11.000;2023-12-20T07:45:38;0.80;;;0.80;;
37288;SDS011;23174;49.462;11.000;2023-12-20T07:47:39;0.82;;;0.70;;
37288;SDS011;23174;49.462;11.000;2023-12-20T07:49:40;0.57;;;0.57;;
37288;SDS011;23174;49.462;11.000;2023-12-20T07:51:41;0.90;;;0.80;;
37288;SDS011;23174;49.462;11.000;2023-12-20T07:53:41;2.70;;;0.65;;
37288;SDS011;23174;49.462;11.000;2023-12-20T07:55:42;0.80;;;0.60;;
37288;SDS011;23174;49.462;11.000;2023-12-20T07:57:43;0.70;;;0.70;;
37288;SDS011;23174;49.462;11.000;2023-12-20T07:59:43;3.80;;;0.70;;
37288;SDS011;23174;49.462;11.000;2023-12-20T08:01:44;0.80;;;0.80;;
37288;SDS011;23174;49.462;11.000;2023-12-20T08:03:45;0.95;;;0.60;;
37288;SDS011;23174;49.462;11.000;2023-12-20T08:05:46;0.70;;;0.70;;
37288;SDS011;23174;49.462;11.000;2023-12-20T08:07:46;0.70;;;0.70;;
37288;SDS011;23174;49.462;11.000;2023-12-20T08:09:47;0.68;;;0.68;;
37288;SDS011;23174;49.462;11.000;2023-12-20T08:11:48;1.77;;;0.95;;
37288;SDS011;23174;49.462;11.000;2023-12-20T08:13:48;1.17;;;0.63;;
37288;SDS011;23174;49.462;11.000;2023-12-20T08:15:49;0.73;;;0.73;;
37288;SDS011;23174;49.462;11.000;2023-12-20T08:17:49;0.77;;;0.70;;
37288;SDS011;23174;49.462;11.000;2023-12-20T08:19:51;1.00;;;0.88;;
37288;SDS011;23174;49.462;11.000;2023-12-20T08:21:51;0.65;;;0.65;;
37288;SDS011;23174;49.462;11.000;2023-12-20T08:23:52;1.15;;;0.88;;
37288;SDS011;23174;49.462;11.000;2023-12-20T08:25:52;0.75;;;0.75;;
37288;SDS011;23174;49.462;11.000;2023-12-20T08:27:53;0.82;;;0.82;;
37288;SDS011;23174;49.462;11.000;2023-12-20T08:29:53;1.90;;;0.60;;
37288;SDS011;23174;49.462;11.000;2023-12-20T08:31:54;0.82;;;0.75;;
37288;SDS011;23174;49.462;11.000;2023-12-20T08:33:55;0.70;;;0.70;;
37288;SDS011;23174;49.462;11.000;2023-12-20T08:35:56;0.88;;;0.88;;
37288;SDS011;23174;49.462;11.000;2023-12-20T08:37:57;2.10;;;0.80;;
37288;SDS011;23174;49.462;11.000;2023-12-20T08:39:58;0.65;;;0.60;;
37288;SDS011;23174;49.462;11.000;2023-12-20T08:41:58;1.25;;;0.70;;
37288;SDS011;23174;49.462;11.000;2023-12-20T08:43:59;0.70;;;0.70;;
37288;SDS011;23174;49.462;11.000;2023-12-20T08:45:59;1.20;;;0.95;;
37288;SDS011;23174;49.462;11.000;2023-12-20T08:48:00;1.00;;;0.90;;
37288;SDS011;23174;49.462;11.000;2023-12-20T08:50:01;1.30;;;0.60;;
37288;SDS011;23174;49.462;11.000;2023-12-20T08:52:02;0.70;;;0.70;;
37288;SDS011;23174;49.462;11.000;2023-12-20T08:54:03;1.65;;;1.00;;
37288;SDS011;23174;49.462;11.000;2023-12-20T08:56:07;1.08;;;0.77;;
37288;SDS011;23174;49.462;11.000;2023-12-20T08:58:08;0.70;;;0.70;;
37288;SDS011;23174;49.462;11.000;2023-12-20T09:00:08;1.20;;;1.10;;
37288;SDS011;23174;49.462;11.000;2023-12-20T09:02:09;2.08;;;0.73;;
37288;SDS011;23174;49.462;11.000;2023-12-20T09:04:10;0.77;;;0.77;;
37288;SDS011;23174;49.462;11.000;2023-12-20T09:06:10;0.70;;;0.70;;
37288;SDS011;23174;49.462;11.000;2023-12-20T09:08:11;1.83;;;1.13;;
37288;SDS011;23174;49.462;11.000;2023-12-20T09:10:11;0.80;;;0.80;;
37288;SDS011;23174;49.462;11.000;2023-12-20T09:12:12;1.27;;;0.80;;
37288;SDS011;23174;49.462;11.000;2023-12-20T09:14:12;1.25;;;0.95;;
37288;SDS011;23174;49.462;11.000;2023-12-20T09:16:13;1.60;;;1.08;;
37288;SDS011;23174;49.462;11.000;2023-12-20T09:18:15;2.22;;;1.05;;
37288;SDS011;23174;49.462;11.000;2023-12-20T09:20:16;1.98;;;1.10;;
37288;SDS011;23174;49.462;11.000;2023-12-20T09:22:16;1.63;;;1.10;;
37288;SDS011;23174;49.462;11.000;2023-12-20T09:24:17;0.95;;;0.80;;
37288;SDS011;23174;49.462;11.000;2023-12-20T09:26:18;0.85;;;0.82;;
37288;SDS011;23174;49.462;11.000;2023-12-20T09:28:18;1.40;;;1.00;;
37288;SDS011;23174;49.462;11.000;2023-12-20T09:30:19;2.63;;;1.10;;
37288;SDS011;23174;49.462;11.000;2023-12-20T09:32:20;2.28;;;1.00;;
37288;SDS011;23174;49.462;11.000;2023-12-20T09:34:20;1.58;;;0.85;;
37288;SDS011;23174;49.462;11.000;2023-12-20T09:36:22;1.15;;;1.05;;
37288;SDS011;23174;49.462;11.000;2023-12-20T09:38:22;1.40;;;1.30;;
37288;SDS011;23174;49.462;11.000;2023-12-20T09:40:22;1.75;;;1.10;;
37288;SDS011;23174;49.462;11.000;2023-12-20T09:42:36;0.85;;;0.80;;
37288;SDS011;23174;49.462;11.000;2023-12-20T09:44:49;1.60;;;0.80;;
37288;SDS011;23174;49.462;11.000;2023-12-20T09:46:50;3.53;;;0.93;;
37288;SDS011;23174;49.462;11.000;2023-12-20T09:48:53;1.48;;;1.15;;
37288;SDS011;23174;49.462;11.000;2023-12-20T09:50:54;2.55;;;0.80;;
37288;SDS011;23174;49.462;11.000;2023-12-20T09:52:55;1.40;;;1.00;;
37288;SDS011;23174;49.462;11.000;2023-12-20T09:54:59;1.25;;;0.80;;
37288;SDS011;23174;49.462;11.000;2023-12-20T09:57:05;1.77;;;1.05;;
37288;SDS011;23174;49.462;11.000;2023-12-20T09:59:06;3.25;;;0.80;;
37288;SDS011;23174;49.462;11.000;2023-12-20T10:01:07;2.00;;;1.00;;
37288;SDS011;23174;49.462;11.000;2023-12-20T10:03:08;4.25;;;1.00;;
37288;SDS011;23174;49.462;11.000;2023-12-20T10:05:09;2.78;;;0.98;;
37288;SDS011;23174;49.462;11.000;2023-12-20T10:07:18;1.60;;;1.00;;
37288;SDS011;23174;49.462;11.000;2023-12-20T10:09:19;2.13;;;0.98;;
37288;SDS011;23174;49.462;11.000;2023-12-20T10:11:20;3.90;;;1.10;;
37288;SDS011;23174;49.462;11.000;2023-12-20T10:13:20;3.25;;;1.00;;
37288;SDS011;23174;49.462;11.000;2023-12-20T10:15:20;3.03;;;1.20;;
37288;SDS011;23174;49.462;11.000;2023-12-20T10:17:21;2.03;;;1.10;;
37288;SDS011;23174;49.462;11.000;2023-12-20T10:19:21;1.75;;;0.60;;
37288;SDS011;23174;49.462;11.000;2023-12-20T10:21:22;2.08;;;1.15;;
37288;SDS011;23174;49.462;11.000;2023-12-20T10:23:24;2.78;;;1.10;;
37288;SDS011;23174;49.462;11.000;2023-12-20T10:25:26;2.70;;;0.90;;
37288;SDS011;23174;49.462;11.000;2023-12-20T10:27:27;3.88;;;1.10;;
37288;SDS011;23174;49.462;11.000;2023-12-20T10:29:27;2.85;;;1.20;;
37288;SDS011;23174;49.462;11.000;2023-12-20T10:33:30;3.10;;;1.20;;
37288;SDS011;23174;49.462;11.000;2023-12-20T10:35:34;1.38;;;0.95;;
37288;SDS011;23174;49.462;11.000;2023-12-20T10:37:36;3.90;;;1.10;;
37288;SDS011;23174;49.462;11.000;2023-12-20T10:39:37;2.33;;;0.90;;
37288;SDS011;23174;49.462;11.000;2023-12-20T10:41:38;1.83;;;1.05;;
37288;SDS011;23174;49.462;11.000;2023-12-20T10:43:41;2.70;;;1.10;;
37288;SDS011;23174;49.462;11.000;2023-12-20T10:45:42;3.70;;;0.95;;
37288;SDS011;23174;49.462;11.000;2023-12-20T10:47:48;2.70;;;1.33;;
37288;SDS011;23174;49.462;11.000;2023-12-20T10:49:50;3.20;;;1.52;;
37288;SDS011;23174;49.462;11.000;2023-12-20T10:51:53;2.47;;;1.10;;
37288;SDS011;23174;49.462;11.000;2023-12-20T10:53:54;2.47;;;1.58;;
37288;SDS011;23174;49.462;11.000;2023-12-20T10:55:55;4.25;;;1.45;;
37288;SDS011;23174;49.462;11.000;2023-12-20T10:58:00;3.13;;;1.40;;
37288;SDS011;23174;49.462;11.000;2023-12-20T11:00:02;2.47;;;1.45;;
37288;SDS011;23174;49.462;11.000;2023-12-20T11:02:05;3.80;;;1.42;;
37288;SDS011;23174;49.462;11.000;2023-12-20T11:04:06;5.10;;;1.45;;
37288;SDS011;23174;49.462;11.000;2023-12-20T11:06:13;1.77;;;1.25;;
37288;SDS011;23174;49.462;11.000;2023-12-20T11:10:56;3.47;;;1.90;;
37288;SDS011;23174;49.462;11.000;2023-12-20T11:13:16;3.53;;;0.98;;
37288;SDS011;23174;49.462;11.000;2023-12-20T11:15:21;3.20;;;1.38;;
37288;SDS011;23174;49.462;11.000;2023-12-20T11:17:22;2.70;;;1.33;;
37288;SDS011;23174;49.462;11.000;2023-12-20T11:19:22;4.00;;;1.60;;
37288;SDS011;23174;49.462;11.000;2023-12-20T11:21:23;2.55;;;1.20;;
37288;SDS011;23174;49.462;11.000;2023-12-20T11:23:23;3.88;;;1.30;;
37288;SDS011;23174;49.462;11.000;2023-12-20T11:25:24;2.47;;;1.00;;
37288;SDS011;23174;49.462;11.000;2023-12-20T11:27:24;3.65;;;1.23;;
37288;SDS011;23174;49.462;11.000;2023-12-20T11:29:32;2.15;;;0.80;;
37288;SDS011;23174;49.462;11.000;2023-12-20T11:31:39;2.00;;;1.08;;
37288;SDS011;23174;49.462;11.000;2023-12-20T11:33:41;3.53;;;1.00;;
37288;SDS011;23174;49.462;11.000;2023-12-20T11:35:42;4.30;;;2.00;;
37288;SDS011;23174;49.462;11.000;2023-12-20T11:37:46;5.25;;;1.77;;
37288;SDS011;23174;49.462;11.000;2023-12-20T11:39:55;3.22;;;1.27;;
37288;SDS011;23174;49.462;11.000;2023-12-20T11:41:56;1.50;;;1.00;;
37288;SDS011;23174;49.462;11.000;2023-12-20T11:43:57;3.83;;;1.38;;
37288;SDS011;23174;49.462;11.000;2023-12-20T11:46:04;3.90;;;1.50;;
37288;SDS011;23174;49.462;11.000;2023-12-20T11:48:06;2.80;;;1.10;;
37288;SDS011;23174;49.462;11.000;2023-12-20T11:50:07;2.30;;;1.38;;
37288;SDS011;23174;49.462;11.000;2023-12-20T11:52:08;2.85;;;1.27;;
37288;SDS011;23174;49.462;11.000;2023-12-20T11:54:08;4.65;;;1.30;;
37288;SDS011;23174;49.462;11.000;2023-12-20T11:56:11;3.88;;;1.33;;
37288;SDS011;23174;49.462;11.000;2023-12-20T11:58:12;3.15;;;1.27;;
37288;SDS011;23174;49.462;11.000;2023-12-20T12:00:13;2.20;;;1.02;;
37288;SDS011;23174;49.462;11.000;2023-12-20T12:02:14;3.10;;;1.20;;